sensor_id;sensor_type;location;lat;lon;timestamp;pressure;altitude;pressure_sealevel;temperature;humidity
11268;BME280;49397;47.474;9.416;2023-08-21T00:01:14;95989.31;;;21.52;67.18
11268;BME280;49397;47.474;9.416;2023-08-21T00:03:39;95985.06;;;21.54;68.06
11268;BME280;49397;47.474;9.416;2023-08-21T00:06:05;95985.66;;;21.44;68.38
11268;BME280;49397;47.474;9.416;2023-08-21T00:08:30;95991.25;;;21.51;67.33
11268;BME280;49397;47.474;9.416;2023-08-21T00:10:55;95986.84;;;21.43;68.07
11268;BME280;49397;47.474;9.416;2023-08-21T00:13:21;95983.31;;;21.43;67.78
11268;BME280;49397;47.474;9.416;2023-08-21T00:15:46;95984.91;;;21.44;68.18
11268;BME280;49397;47.474;9.416;2023-08-21T00:18:12;95988.69;;;21.39;68.17
11268;BME280;49397;47.474;9.416;2023-08-21T00:20:37;95980.94;;;21.41;68.11
11268;BME280;49397;47.474;9.416;2023-08-21T00:23:02;95989.69;;;21.50;67.92
11268;BME280;49397;47.474;9.416;2023-08-21T00:25:28;95983.56;;;21.57;67.18
11268;BME280;49397;47.474;9.416;2023-08-21T00:27:53;95985.44;;;21.53;68.18
11268;BME280;49397;47.474;9.416;2023-08-21T00:30:19;95990.44;;;21.51;68.16
11268;BME280;49397;47.474;9.416;2023-08-21T00:32:44;95978.75;;;21.47;68.67
11268;BME280;49397;47.474;9.416;2023-08-21T00:35:09;95985.25;;;21.42;69.00
11268;BME280;49397;47.474;9.416;2023-08-21T00:37:35;95978.19;;;21.38;69.05
11268;BME280;49397;47.474;9.416;2023-08-21T00:40:00;95981.34;;;21.40;68.89
11268;BME280;49397;47.474;9.416;2023-08-21T00:42:25;95981.63;;;21.35;68.68
11268;BME280;49397;47.474;9.416;2023-08-21T00:44:51;95983.84;;;21.29;69.84
11268;BME280;49397;47.474;9.416;2023-08-21T00:47:16;95977.53;;;21.22;69.79
11268;BME280;49397;47.474;9.416;2023-08-21T00:49:42;95986.50;;;21.26;69.41
11268;BME280;49397;47.474;9.416;2023-08-21T00:52:11;95990.31;;;21.21;69.34
11268;BME280;49397;47.474;9.416;2023-08-21T00:54:37;95982.16;;;21.21;69.83
11268;BME280;49397;47.474;9.416;2023-08-21T00:57:04;95976.66;;;21.18;69.93
11268;BME280;49397;47.474;9.416;2023-08-21T00:59:30;95977.44;;;21.18;70.22
11268;BME280;49397;47.474;9.416;2023-08-21T01:01:55;95979.38;;;21.18;71.04
11268;BME280;49397;47.474;9.416;2023-08-21T01:04:21;95970.03;;;21.15;70.31
11268;BME280;49397;47.474;9.416;2023-08-21T01:06:50;95974.22;;;21.13;70.93
11268;BME280;49397;47.474;9.416;2023-08-21T01:09:27;95979.13;;;21.07;70.76
11268;BME280;49397;47.474;9.416;2023-08-21T01:12:00;95976.78;;;21.05;70.60
11268;BME280;49397;47.474;9.416;2023-08-21T01:14:59;95979.72;;;20.97;71.63
11268;BME280;49397;47.474;9.416;2023-08-21T01:17:26;95984.03;;;20.98;71.25
11268;BME280;49397;47.474;9.416;2023-08-21T01:19:54;95987.09;;;20.96;71.24
11268;BME280;49397;47.474;9.416;2023-08-21T01:22:20;95983.88;;;20.91;71.79
11268;BME280;49397;47.474;9.416;2023-08-21T01:24:46;95990.75;;;20.85;72.13
11268;BME280;49397;47.474;9.416;2023-08-21T01:27:13;95979.81;;;20.81;72.52
11268;BME280;49397;47.474;9.416;2023-08-21T01:29:39;95986.75;;;20.79;72.04
11268;BME280;49397;47.474;9.416;2023-08-21T01:32:14;95992.81;;;20.72;72.41
11268;BME280;49397;47.474;9.416;2023-08-21T01:34:43;95990.09;;;20.72;72.11
11268;BME280;49397;47.474;9.416;2023-08-21T01:37:09;95992.03;;;20.72;72.22
11268;BME280;49397;47.474;9.416;2023-08-21T01:39:35;95987.75;;;20.71;71.94
11268;BME280;49397;47.474;9.416;2023-08-21T01:42:01;95984.38;;;20.77;71.33
11268;BME280;49397;47.474;9.416;2023-08-21T01:44:26;95990.66;;;20.81;71.13
11268;BME280;49397;47.474;9.416;2023-08-21T01:46:52;95984.19;;;20.67;72.56
11268;BME280;49397;47.474;9.416;2023-08-21T01:49:18;95989.75;;;20.74;71.71
11268;BME280;49397;47.474;9.416;2023-08-21T01:51:45;95990.75;;;20.66;72.60
11268;BME280;49397;47.474;9.416;2023-08-21T01:54:10;95986.09;;;20.66;72.34
11268;BME280;49397;47.474;9.416;2023-08-21T01:56:35;95990.59;;;20.58;72.25
11268;BME280;49397;47.474;9.416;2023-08-21T01:59:02;95996.31;;;20.73;71.60
11268;BME280;49397;47.474;9.416;2023-08-21T02:01:27;95990.91;;;20.73;71.78
11268;BME280;49397;47.474;9.416;2023-08-21T02:03:52;95992.91;;;20.76;71.55
11268;BME280;49397;47.474;9.416;2023-08-21T02:06:18;95984.44;;;20.81;71.15
11268;BME280;49397;47.474;9.416;2023-08-21T02:08:43;95991.69;;;20.73;71.59
11268;BME280;49397;47.474;9.416;2023-08-21T02:11:08;95992.91;;;20.76;71.71
11268;BME280;49397;47.474;9.416;2023-08-21T02:13:34;95990.47;;;20.71;72.12
11268;BME280;49397;47.474;9.416;2023-08-21T02:15:59;95996.81;;;20.78;71.31
11268;BME280;49397;47.474;9.416;2023-08-21T02:18:25;95995.31;;;20.81;71.89
11268;BME280;49397;47.474;9.416;2023-08-21T02:20:50;95991.84;;;20.80;72.23
11268;BME280;49397;47.474;9.416;2023-08-21T02:23:15;95993.38;;;20.81;72.49
11268;BME280;49397;47.474;9.416;2023-08-21T02:25:41;95998.47;;;20.83;72.00
11268;BME280;49397;47.474;9.416;2023-08-21T02:28:07;95998.03;;;20.81;72.39
11268;BME280;49397;47.474;9.416;2023-08-21T02:30:32;96002.56;;;20.73;72.42
11268;BME280;49397;47.474;9.416;2023-08-21T02:32:58;96001.13;;;20.79;72.03
11268;BME280;49397;47.474;9.416;2023-08-21T02:35:23;96001.47;;;20.78;71.77
11268;BME280;49397;47.474;9.416;2023-08-21T02:37:48;96001.91;;;20.80;71.66
11268;BME280;49397;47.474;9.416;2023-08-21T02:40:14;96005.28;;;20.73;72.32
11268;BME280;49397;47.474;9.416;2023-08-21T02:42:39;96006.63;;;20.64;73.31
11268;BME280;49397;47.474;9.416;2023-08-21T02:45:05;96003.81;;;20.60;72.70
11268;BME280;49397;47.474;9.416;2023-08-21T02:47:40;96008.06;;;20.57;72.86
11268;BME280;49397;47.474;9.416;2023-08-21T02:50:07;96007.09;;;20.50;73.07
11268;BME280;49397;47.474;9.416;2023-08-21T02:52:33;96003.09;;;20.44;73.71
11268;BME280;49397;47.474;9.416;2023-08-21T02:54:59;96000.22;;;20.37;73.97
11268;BME280;49397;47.474;9.416;2023-08-21T02:57:26;96002.13;;;20.36;73.81
11268;BME280;49397;47.474;9.416;2023-08-21T02:59:51;96001.44;;;20.39;73.33
11268;BME280;49397;47.474;9.416;2023-08-21T03:02:18;95994.63;;;20.30;73.66
11268;BME280;49397;47.474;9.416;2023-08-21T03:04:43;95993.06;;;20.29;73.90
11268;BME280;49397;47.474;9.416;2023-08-21T03:07:08;95998.06;;;20.27;73.76
11268;BME280;49397;47.474;9.416;2023-08-21T03:09:34;95997.94;;;20.23;74.23
11268;BME280;49397;47.474;9.416;2023-08-21T03:11:59;96004.78;;;20.17;74.56
11268;BME280;49397;47.474;9.416;2023-08-21T03:14:26;96001.97;;;20.14;74.66
11268;BME280;49397;47.474;9.416;2023-08-21T03:16:52;96003.84;;;20.10;74.81
11268;BME280;49397;47.474;9.416;2023-08-21T03:19:17;95995.25;;;20.07;75.23
11268;BME280;49397;47.474;9.416;2023-08-21T03:21:42;96001.41;;;20.04;75.97
11268;BME280;49397;47.474;9.416;2023-08-21T03:24:08;95999.47;;;20.05;76.00
11268;BME280;49397;47.474;9.416;2023-08-21T03:26:33;96004.28;;;20.12;75.12
11268;BME280;49397;47.474;9.416;2023-08-21T03:28:59;96003.56;;;20.15;75.03
11268;BME280;49397;47.474;9.416;2023-08-21T03:31:24;95997.72;;;20.13;75.30
11268;BME280;49397;47.474;9.416;2023-08-21T03:33:49;95995.72;;;20.10;75.35
11268;BME280;49397;47.474;9.416;2023-08-21T03:36:15;96001.13;;;20.10;74.78
11268;BME280;49397;47.474;9.416;2023-08-21T03:38:40;96001.97;;;20.14;74.40
11268;BME280;49397;47.474;9.416;2023-08-21T03:41:06;96000.69;;;20.07;75.29
11268;BME280;49397;47.474;9.416;2023-08-21T03:43:32;96004.81;;;20.01;75.68
11268;BME280;49397;47.474;9.416;2023-08-21T03:45:57;96007.81;;;19.96;75.41
11268;BME280;49397;47.474;9.416;2023-08-21T03:48:23;96001.94;;;19.94;75.71
11268;BME280;49397;47.474;9.416;2023-08-21T03:50:49;96004.63;;;19.94;75.46
11268;BME280;49397;47.474;9.416;2023-08-21T03:53:14;96004.72;;;19.98;75.89
11268;BME280;49397;47.474;9.416;2023-08-21T03:55:40;96006.22;;;19.95;75.86
11268;BME280;49397;47.474;9.416;2023-08-21T03:58:05;96009.91;;;20.03;75.47
11268;BME280;49397;47.474;9.416;2023-08-21T04:00:31;96016.03;;;20.00;75.53
11268;BME280;49397;47.474;9.416;2023-08-21T04:02:57;96015.31;;;20.03;75.76
11268;BME280;49397;47.474;9.416;2023-08-21T04:05:23;96014.88;;;20.01;75.95
11268;BME280;49397;47.474;9.416;2023-08-21T04:07:48;96016.38;;;19.98;76.71
11268;BME280;49397;47.474;9.416;2023-08-21T04:10:13;96025.63;;;19.97;76.50
11268;BME280;49397;47.474;9.416;2023-08-21T04:12:39;96017.00;;;19.92;76.90
11268;BME280;49397;47.474;9.416;2023-08-21T04:15:04;96020.41;;;19.89;76.87
11268;BME280;49397;47.474;9.416;2023-08-21T04:17:31;96025.84;;;19.89;76.59
11268;BME280;49397;47.474;9.416;2023-08-21T04:19:56;96028.53;;;19.89;76.09
11268;BME280;49397;47.474;9.416;2023-08-21T04:22:22;96024.09;;;19.96;75.68
11268;BME280;49397;47.474;9.416;2023-08-21T04:24:48;96030.22;;;19.93;76.52
11268;BME280;49397;47.474;9.416;2023-08-21T04:27:13;96032.13;;;19.93;76.81
11268;BME280;49397;47.474;9.416;2023-08-21T04:29:39;96029.94;;;19.98;76.56
11268;BME280;49397;47.474;9.416;2023-08-21T04:32:05;96026.88;;;20.00;76.09
11268;BME280;49397;47.474;9.416;2023-08-21T04:34:32;96032.22;;;19.96;76.60
11268;BME280;49397;47.474;9.416;2023-08-21T04:36:57;96031.59;;;20.03;76.54
11268;BME280;49397;47.474;9.416;2023-08-21T04:39:23;96026.09;;;19.99;76.27
11268;BME280;49397;47.474;9.416;2023-08-21T04:41:48;96036.94;;;19.99;76.06
11268;BME280;49397;47.474;9.416;2023-08-21T04:44:13;96036.84;;;19.96;76.26
11268;BME280;49397;47.474;9.416;2023-08-21T04:46:39;96035.38;;;19.98;76.02
11268;BME280;49397;47.474;9.416;2023-08-21T04:49:04;96032.81;;;20.05;75.66
11268;BME280;49397;47.474;9.416;2023-08-21T04:51:31;96036.25;;;20.02;75.85
11268;BME280;49397;47.474;9.416;2023-08-21T04:53:56;96041.38;;;20.07;75.55
11268;BME280;49397;47.474;9.416;2023-08-21T04:56:21;96034.13;;;20.12;75.32
11268;BME280;49397;47.474;9.416;2023-08-21T04:58:47;96040.34;;;20.12;75.65
11268;BME280;49397;47.474;9.416;2023-08-21T05:01:12;96039.97;;;20.14;75.73
11268;BME280;49397;47.474;9.416;2023-08-21T05:03:37;96039.56;;;20.12;75.29
11268;BME280;49397;47.474;9.416;2023-08-21T05:06:03;96048.56;;;20.16;75.72
11268;BME280;49397;47.474;9.416;2023-08-21T05:08:28;96045.50;;;20.17;75.38
11268;BME280;49397;47.474;9.416;2023-08-21T05:10:55;96047.09;;;20.18;75.50
11268;BME280;49397;47.474;9.416;2023-08-21T05:13:21;96045.66;;;20.24;75.43
11268;BME280;49397;47.474;9.416;2023-08-21T05:15:51;96053.94;;;20.28;75.17
11268;BME280;49397;47.474;9.416;2023-08-21T05:18:17;96050.09;;;20.29;75.37
11268;BME280;49397;47.474;9.416;2023-08-21T05:20:42;96052.78;;;20.29;75.40
11268;BME280;49397;47.474;9.416;2023-08-21T05:23:08;96053.63;;;20.33;75.24
11268;BME280;49397;47.474;9.416;2023-08-21T05:25:33;96048.50;;;20.28;76.55
11268;BME280;49397;47.474;9.416;2023-08-21T05:27:58;96056.91;;;20.38;74.99
11268;BME280;49397;47.474;9.416;2023-08-21T05:30:25;96050.53;;;20.50;74.97
11268;BME280;49397;47.474;9.416;2023-08-21T05:32:50;96049.44;;;20.70;74.17
11268;BME280;49397;47.474;9.416;2023-08-21T05:35:15;96055.00;;;20.77;74.33
11268;BME280;49397;47.474;9.416;2023-08-21T05:37:41;96054.91;;;20.89;74.07
11268;BME280;49397;47.474;9.416;2023-08-21T05:40:07;96061.69;;;20.99;73.96
11268;BME280;49397;47.474;9.416;2023-08-21T05:42:33;96058.59;;;21.00;74.18
11268;BME280;49397;47.474;9.416;2023-08-21T05:44:58;96060.81;;;20.95;74.92
11268;BME280;49397;47.474;9.416;2023-08-21T05:47:24;96063.25;;;21.00;75.19
11268;BME280;49397;47.474;9.416;2023-08-21T05:49:50;96065.50;;;21.14;74.35
11268;BME280;49397;47.474;9.416;2023-08-21T05:52:15;96068.06;;;21.26;73.89
11268;BME280;49397;47.474;9.416;2023-08-21T05:54:40;96069.41;;;21.35;73.55
11268;BME280;49397;47.474;9.416;2023-08-21T05:57:06;96067.63;;;21.43;73.61
11268;BME280;49397;47.474;9.416;2023-08-21T05:59:32;96071.41;;;21.38;74.37
11268;BME280;49397;47.474;9.416;2023-08-21T06:01:58;96066.06;;;21.42;74.68
11268;BME280;49397;47.474;9.416;2023-08-21T06:04:24;96064.81;;;21.58;73.93
11268;BME280;49397;47.474;9.416;2023-08-21T06:06:49;96064.56;;;21.67;73.82
11268;BME280;49397;47.474;9.416;2023-08-21T06:09:15;96066.81;;;21.84;72.58
11268;BME280;49397;47.474;9.416;2023-08-21T06:11:42;96067.47;;;21.97;72.39
11268;BME280;49397;47.474;9.416;2023-08-21T06:14:08;96079.13;;;21.97;72.95
11268;BME280;49397;47.474;9.416;2023-08-21T06:16:33;96074.78;;;21.93;73.11
11268;BME280;49397;47.474;9.416;2023-08-21T06:18:58;96078.63;;;22.14;72.87
11268;BME280;49397;47.474;9.416;2023-08-21T06:21:24;96074.72;;;22.38;71.96
11268;BME280;49397;47.474;9.416;2023-08-21T06:23:49;96073.72;;;22.50;71.62
11268;BME280;49397;47.474;9.416;2023-08-21T06:28:40;96076.38;;;22.69;71.55
11268;BME280;49397;47.474;9.416;2023-08-21T06:31:05;96072.66;;;22.81;71.35
11268;BME280;49397;47.474;9.416;2023-08-21T06:33:33;96070.09;;;22.95;71.81
11268;BME280;49397;47.474;9.416;2023-08-21T06:35:58;96078.75;;;23.00;71.46
11268;BME280;49397;47.474;9.416;2023-08-21T06:38:24;96083.88;;;23.05;71.00
11268;BME280;49397;47.474;9.416;2023-08-21T06:40:49;96079.38;;;23.16;68.92
11268;BME280;49397;47.474;9.416;2023-08-21T06:43:16;96080.47;;;23.42;67.63
11268;BME280;49397;47.474;9.416;2023-08-21T06:45:42;96081.34;;;23.53;67.90
11268;BME280;49397;47.474;9.416;2023-08-21T06:48:07;96082.66;;;23.66;67.56
11268;BME280;49397;47.474;9.416;2023-08-21T06:50:33;96079.66;;;23.78;66.79
11268;BME280;49397;47.474;9.416;2023-08-21T06:52:59;96082.13;;;23.90;67.46
11268;BME280;49397;47.474;9.416;2023-08-21T06:55:24;96086.81;;;23.90;66.80
11268;BME280;49397;47.474;9.416;2023-08-21T06:57:49;96085.16;;;23.82;68.38
11268;BME280;49397;47.474;9.416;2023-08-21T07:00:15;96091.56;;;23.96;69.38
11268;BME280;49397;47.474;9.416;2023-08-21T07:02:40;96093.53;;;24.03;69.69
11268;BME280;49397;47.474;9.416;2023-08-21T07:05:06;96086.34;;;24.21;69.58
11268;BME280;49397;47.474;9.416;2023-08-21T07:07:33;96085.91;;;24.19;70.45
11268;BME280;49397;47.474;9.416;2023-08-21T07:09:58;96094.41;;;24.10;70.33
11268;BME280;49397;47.474;9.416;2023-08-21T07:12:24;96098.38;;;24.16;70.83
11268;BME280;49397;47.474;9.416;2023-08-21T07:14:49;96105.50;;;24.25;71.22
11268;BME280;49397;47.474;9.416;2023-08-21T07:17:14;96102.56;;;24.07;70.64
11268;BME280;49397;47.474;9.416;2023-08-21T07:19:40;96104.03;;;23.97;70.78
11268;BME280;49397;47.474;9.416;2023-08-21T07:22:06;96119.47;;;24.19;70.45
11268;BME280;49397;47.474;9.416;2023-08-21T07:24:31;96114.84;;;24.23;70.12
11268;BME280;49397;47.474;9.416;2023-08-21T07:26:57;96115.06;;;24.08;71.41
11268;BME280;49397;47.474;9.416;2023-08-21T07:29:22;96115.59;;;23.84;72.67
11268;BME280;49397;47.474;9.416;2023-08-21T07:31:48;96110.25;;;23.94;72.92
11268;BME280;49397;47.474;9.416;2023-08-21T07:34:13;96114.81;;;24.20;72.88
11268;BME280;49397;47.474;9.416;2023-08-21T07:36:38;96110.38;;;24.52;72.16
11268;BME280;49397;47.474;9.416;2023-08-21T07:39:04;96119.00;;;24.58;71.56
11268;BME280;49397;47.474;9.416;2023-08-21T07:41:29;96117.19;;;24.72;70.62
11268;BME280;49397;47.474;9.416;2023-08-21T07:43:54;96108.16;;;24.68;70.76
11268;BME280;49397;47.474;9.416;2023-08-21T07:46:20;96111.75;;;24.76;71.37
11268;BME280;49397;47.474;9.416;2023-08-21T07:48:46;96115.56;;;24.68;71.24
11268;BME280;49397;47.474;9.416;2023-08-21T07:51:11;96112.03;;;24.64;70.62
11268;BME280;49397;47.474;9.416;2023-08-21T07:53:37;96114.44;;;24.72;70.33
11268;BME280;49397;47.474;9.416;2023-08-21T07:56:04;96113.84;;;25.00;70.04
11268;BME280;49397;47.474;9.416;2023-08-21T07:58:30;96120.47;;;24.99;69.83
11268;BME280;49397;47.474;9.416;2023-08-21T08:00:56;96111.59;;;25.16;69.30
11268;BME280;49397;47.474;9.416;2023-08-21T08:03:21;96109.31;;;25.33;68.58
11268;BME280;49397;47.474;9.416;2023-08-21T08:05:47;96115.72;;;25.58;67.92
11268;BME280;49397;47.474;9.416;2023-08-21T08:08:12;96108.59;;;25.43;68.65
11268;BME280;49397;47.474;9.416;2023-08-21T08:10:38;96108.72;;;25.71;67.47
11268;BME280;49397;47.474;9.416;2023-08-21T08:13:04;96100.09;;;25.76;65.97
11268;BME280;49397;47.474;9.416;2023-08-21T08:15:30;96105.59;;;25.83;65.83
11268;BME280;49397;47.474;9.416;2023-08-21T08:17:55;96106.41;;;25.91;65.96
11268;BME280;49397;47.474;9.416;2023-08-21T08:20:21;96108.03;;;26.16;65.87
11268;BME280;49397;47.474;9.416;2023-08-21T08:22:46;96104.13;;;26.35;64.58
11268;BME280;49397;47.474;9.416;2023-08-21T08:25:12;96115.47;;;26.34;65.59
11268;BME280;49397;47.474;9.416;2023-08-21T08:27:39;96113.13;;;26.46;65.17
11268;BME280;49397;47.474;9.416;2023-08-21T08:30:05;96104.13;;;26.60;64.49
11268;BME280;49397;47.474;9.416;2023-08-21T08:32:30;96113.09;;;26.78;63.63
11268;BME280;49397;47.474;9.416;2023-08-21T08:34:56;96105.28;;;26.76;63.82
11268;BME280;49397;47.474;9.416;2023-08-21T08:37:21;96114.69;;;26.86;64.19
11268;BME280;49397;47.474;9.416;2023-08-21T08:39:47;96114.66;;;26.93;64.43
11268;BME280;49397;47.474;9.416;2023-08-21T08:42:13;96111.53;;;26.88;64.13
11268;BME280;49397;47.474;9.416;2023-08-21T08:44:39;96102.09;;;27.06;64.04
11268;BME280;49397;47.474;9.416;2023-08-21T08:47:06;96107.59;;;27.03;64.15
11268;BME280;49397;47.474;9.416;2023-08-21T08:49:32;96103.22;;;27.23;63.63
11268;BME280;49397;47.474;9.416;2023-08-21T08:51:59;96110.31;;;27.17;64.05
11268;BME280;49397;47.474;9.416;2023-08-21T08:54:25;96110.22;;;27.38;63.63
11268;BME280;49397;47.474;9.416;2023-08-21T08:56:51;96106.69;;;27.41;63.40
11268;BME280;49397;47.474;9.416;2023-08-21T08:59:17;96105.47;;;27.56;63.58
11268;BME280;49397;47.474;9.416;2023-08-21T09:01:42;96108.22;;;27.56;64.83
11268;BME280;49397;47.474;9.416;2023-08-21T09:04:08;96108.53;;;27.76;63.66
11268;BME280;49397;47.474;9.416;2023-08-21T09:06:33;96111.34;;;27.62;63.06
11268;BME280;49397;47.474;9.416;2023-08-21T09:08:59;96110.97;;;27.56;63.28
11268;BME280;49397;47.474;9.416;2023-08-21T09:11:25;96107.00;;;27.61;63.28
11268;BME280;49397;47.474;9.416;2023-08-21T09:13:51;96104.19;;;27.78;62.69
11268;BME280;49397;47.474;9.416;2023-08-21T09:16:18;96099.84;;;27.84;61.90
11268;BME280;49397;47.474;9.416;2023-08-21T09:18:50;96105.78;;;27.76;61.98
11268;BME280;49397;47.474;9.416;2023-08-21T09:21:17;96101.31;;;28.00;61.23
11268;BME280;49397;47.474;9.416;2023-08-21T09:23:42;96103.56;;;28.19;61.87
11268;BME280;49397;47.474;9.416;2023-08-21T09:26:08;96098.44;;;28.21;60.42
11268;BME280;49397;47.474;9.416;2023-08-21T09:28:34;96093.63;;;28.32;60.92
11268;BME280;49397;47.474;9.416;2023-08-21T09:31:00;96098.22;;;27.94;61.03
11268;BME280;49397;47.474;9.416;2023-08-21T09:33:25;96103.22;;;28.10;60.12
11268;BME280;49397;47.474;9.416;2023-08-21T09:35:52;96091.09;;;28.00;60.29
11268;BME280;49397;47.474;9.416;2023-08-21T09:38:18;96101.59;;;28.19;61.03
11268;BME280;49397;47.474;9.416;2023-08-21T09:40:50;96092.75;;;28.46;59.75
11268;BME280;49397;47.474;9.416;2023-08-21T09:43:17;96091.66;;;28.36;59.64
11268;BME280;49397;47.474;9.416;2023-08-21T09:45:46;96088.31;;;28.59;59.53
11268;BME280;49397;47.474;9.416;2023-08-21T09:48:13;96086.28;;;28.66;59.03
11268;BME280;49397;47.474;9.416;2023-08-21T09:50:39;96092.78;;;28.42;58.99
11268;BME280;49397;47.474;9.416;2023-08-21T09:53:09;96082.00;;;28.62;58.51
11268;BME280;49397;47.474;9.416;2023-08-21T09:55:35;96078.69;;;28.81;58.38
11268;BME280;49397;47.474;9.416;2023-08-21T09:58:01;96083.53;;;28.63;57.65
11268;BME280;49397;47.474;9.416;2023-08-21T10:00:31;96084.81;;;28.96;57.88
11268;BME280;49397;47.474;9.416;2023-08-21T10:03:02;96076.50;;;28.62;57.16
11268;BME280;49397;47.474;9.416;2023-08-21T10:05:29;96072.56;;;28.59;58.23
11268;BME280;49397;47.474;9.416;2023-08-21T10:07:55;96067.72;;;29.15;57.50
11268;BME280;49397;47.474;9.416;2023-08-21T10:10:21;96070.50;;;28.74;57.13
11268;BME280;49397;47.474;9.416;2023-08-21T10:12:50;96073.50;;;28.90;57.45
11268;BME280;49397;47.474;9.416;2023-08-21T10:15:15;96066.84;;;29.25;56.48
11268;BME280;49397;47.474;9.416;2023-08-21T10:17:43;96069.63;;;29.18;56.08
11268;BME280;49397;47.474;9.416;2023-08-21T10:20:09;96068.81;;;29.24;56.96
11268;BME280;49397;47.474;9.416;2023-08-21T10:22:49;96065.41;;;29.44;56.07
11268;BME280;49397;47.474;9.416;2023-08-21T10:25:16;96072.50;;;29.07;55.81
11268;BME280;49397;47.474;9.416;2023-08-21T10:27:42;96066.34;;;29.64;55.15
11268;BME280;49397;47.474;9.416;2023-08-21T10:30:15;96074.78;;;29.50;54.94
11268;BME280;49397;47.474;9.416;2023-08-21T10:32:46;96073.56;;;29.54;55.96
11268;BME280;49397;47.474;9.416;2023-08-21T10:35:18;96071.75;;;29.40;56.03
11268;BME280;49397;47.474;9.416;2023-08-21T10:40:32;96074.97;;;29.66;55.16
11268;BME280;49397;47.474;9.416;2023-08-21T10:42:58;96068.09;;;29.77;54.83
11268;BME280;49397;47.474;9.416;2023-08-21T10:45:24;96063.94;;;29.96;53.76
11268;BME280;49397;47.474;9.416;2023-08-21T10:47:50;96070.66;;;30.45;53.52
11268;BME280;49397;47.474;9.416;2023-08-21T10:50:16;96072.75;;;30.37;53.05
11268;BME280;49397;47.474;9.416;2023-08-21T10:52:43;96060.25;;;30.29;53.54
11268;BME280;49397;47.474;9.416;2023-08-21T10:55:11;96065.53;;;30.47;53.16
11268;BME280;49397;47.474;9.416;2023-08-21T10:57:38;96066.91;;;30.32;53.75
11268;BME280;49397;47.474;9.416;2023-08-21T11:00:21;96064.97;;;30.06;53.78
11268;BME280;49397;47.474;9.416;2023-08-21T11:02:49;96070.19;;;30.50;53.64
11268;BME280;49397;47.474;9.416;2023-08-21T11:05:15;96063.09;;;30.49;52.57
11268;BME280;49397;47.474;9.416;2023-08-21T11:10:21;96071.56;;;30.62;52.62
11268;BME280;49397;47.474;9.416;2023-08-21T11:12:52;96066.72;;;30.89;51.38
11268;BME280;49397;47.474;9.416;2023-08-21T11:15:17;96070.97;;;30.97;49.63
11268;BME280;49397;47.474;9.416;2023-08-21T11:17:53;96061.91;;;30.93;51.25
11268;BME280;49397;47.474;9.416;2023-08-21T11:20:19;96064.22;;;31.18;50.22
11268;BME280;49397;47.474;9.416;2023-08-21T11:22:44;96064.88;;;31.25;50.45
11268;BME280;49397;47.474;9.416;2023-08-21T11:25:10;96061.41;;;30.78;50.22
11268;BME280;49397;47.474;9.416;2023-08-21T11:27:35;96073.59;;;30.81;50.63
11268;BME280;49397;47.474;9.416;2023-08-21T11:30:01;96064.38;;;31.30;50.87
11268;BME280;49397;47.474;9.416;2023-08-21T11:32:27;96061.44;;;31.77;50.52
11268;BME280;49397;47.474;9.416;2023-08-21T11:34:54;96061.59;;;31.30;49.72
11268;BME280;49397;47.474;9.416;2023-08-21T11:37:25;96060.91;;;31.26;50.87
11268;BME280;49397;47.474;9.416;2023-08-21T11:39:53;96059.69;;;31.67;49.80
11268;BME280;49397;47.474;9.416;2023-08-21T11:42:20;96058.44;;;31.87;47.08
11268;BME280;49397;47.474;9.416;2023-08-21T11:44:52;96054.78;;;32.26;49.10
11268;BME280;49397;47.474;9.416;2023-08-21T11:47:21;96057.50;;;31.94;48.63
11268;BME280;49397;47.474;9.416;2023-08-21T11:49:47;96050.06;;;31.35;48.29
11268;BME280;49397;47.474;9.416;2023-08-21T11:52:18;96043.84;;;31.31;49.05
11268;BME280;49397;47.474;9.416;2023-08-21T11:54:48;96052.81;;;31.75;46.16
11268;BME280;49397;47.474;9.416;2023-08-21T11:57:13;96040.13;;;31.93;46.00
11268;BME280;49397;47.474;9.416;2023-08-21T11:59:40;96043.09;;;31.67;46.47
11268;BME280;49397;47.474;9.416;2023-08-21T12:02:28;96038.19;;;32.26;46.31
11268;BME280;49397;47.474;9.416;2023-08-21T12:07:19;96030.75;;;32.23;47.11
11268;BME280;49397;47.474;9.416;2023-08-21T12:09:48;96033.69;;;32.32;46.76
11268;BME280;49397;47.474;9.416;2023-08-21T12:12:14;96031.28;;;32.18;44.62
11268;BME280;49397;47.474;9.416;2023-08-21T12:14:40;96036.13;;;31.78;44.93
11268;BME280;49397;47.474;9.416;2023-08-21T12:17:05;96033.34;;;32.30;45.06
11268;BME280;49397;47.474;9.416;2023-08-21T12:19:31;96037.66;;;32.47;43.99
11268;BME280;49397;47.474;9.416;2023-08-21T12:21:56;96031.09;;;32.09;44.33
11268;BME280;49397;47.474;9.416;2023-08-21T12:24:23;96033.50;;;32.39;43.37
11268;BME280;49397;47.474;9.416;2023-08-21T12:26:49;96022.03;;;32.86;44.77
11268;BME280;49397;47.474;9.416;2023-08-21T12:29:14;96035.69;;;32.64;43.37
11268;BME280;49397;47.474;9.416;2023-08-21T12:31:39;96028.09;;;32.81;44.22
11268;BME280;49397;47.474;9.416;2023-08-21T12:34:05;96019.50;;;32.14;43.73
11268;BME280;49397;47.474;9.416;2023-08-21T12:36:30;96013.63;;;32.61;44.77
11268;BME280;49397;47.474;9.416;2023-08-21T12:38:56;96021.22;;;32.40;44.49
11268;BME280;49397;47.474;9.416;2023-08-21T12:41:21;96016.31;;;32.48;44.26
11268;BME280;49397;47.474;9.416;2023-08-21T12:43:46;96011.97;;;32.47;44.88
11268;BME280;49397;47.474;9.416;2023-08-21T12:46:13;96013.16;;;32.46;45.45
11268;BME280;49397;47.474;9.416;2023-08-21T12:48:38;95997.78;;;32.45;45.89
11268;BME280;49397;47.474;9.416;2023-08-21T12:51:04;95994.44;;;32.21;44.58
11268;BME280;49397;47.474;9.416;2023-08-21T12:53:30;95992.88;;;32.04;44.68
11268;BME280;49397;47.474;9.416;2023-08-21T12:55:55;95994.09;;;32.19;45.25
11268;BME280;49397;47.474;9.416;2023-08-21T12:58:21;95998.06;;;32.18;43.90
11268;BME280;49397;47.474;9.416;2023-08-21T13:00:46;95987.00;;;32.18;43.94
11268;BME280;49397;47.474;9.416;2023-08-21T13:03:12;95986.84;;;32.09;43.76
11268;BME280;49397;47.474;9.416;2023-08-21T13:05:37;95983.03;;;32.19;41.88